Time;durP1;ratioP1;P1;durP2;ratioP2;P2;SDS_P1;SDS_P2;PMS_P1;PMS_P2;Temp;Humidity;BMP_temperature;BMP_pressure;BME280_temperature;BME280_humidity;BME280_pressure;Samples;Min_cycle;Max_cycle;Signal;HPM_P1;HPM_P2
2021/07/13 00:00:20;;;;;;;102.57;71.85;;;19.50;99.60;;;;;;5068577;28;20117;-85
2021/07/13 00:02:46;;;;;;;112.53;76.35;;;19.50;99.60;;;;;;5070514;28;20032;-85
2021/07/13 00:05:14;;;;;;;95.43;67.57;;;19.50;99.70;;;;;;5049789;28;20043;-85
2021/07/13 00:07:41;;;;;;;101.43;70.97;;;19.50;99.70;;;;;;5058070;28;20055;-85
2021/07/13 00:10:08;;;;;;;97.82;70.10;;;19.50;99.60;;;;;;5068552;28;20055;-85
2021/07/13 00:12:35;;;;;;;91.93;66.40;;;19.50;99.60;;;;;;5060421;28;20032;-85
2021/07/13 00:15:12;;;;;;;112.75;73.93;;;19.50;99.50;;;;;;5068672;28;20044;-85
2021/07/13 00:17:39;;;;;;;94.35;66.30;;;19.40;99.50;;;;;;5073728;28;20170;-85
2021/07/13 00:20:06;;;;;;;109.55;75.05;;;19.40;99.60;;;;;;5052047;28;20043;-85
2021/07/13 00:22:33;;;;;;;95.75;68.28;;;19.40;99.60;;;;;;5067492;28;20407;-85
2021/07/13 00:24:59;;;;;;;90.38;65.65;;;19.40;99.70;;;;;;5069617;28;20028;-85
2021/07/13 00:27:25;;;;;;;92.35;66.03;;;19.40;99.60;;;;;;5073073;28;20039;-85
2021/07/13 00:29:51;;;;;;;113.80;75.53;;;19.40;99.70;;;;;;5056864;28;20483;-84
2021/07/13 00:32:16;;;;;;;104.55;70.90;;;19.40;99.70;;;;;;5057839;28;20040;-86
2021/07/13 00:34:42;;;;;;;112.68;73.97;;;19.30;99.80;;;;;;5040734;28;20500;-85
2021/07/13 00:37:08;;;;;;;103.60;71.93;;;19.30;99.90;;;;;;5048287;28;20212;-86
2021/07/13 00:39:34;;;;;;;98.15;69.00;;;19.30;99.90;;;;;;5061624;28;20111;-86
2021/07/13 00:42:00;;;;;;;103.25;70.95;;;19.30;99.90;;;;;;5067203;28;20024;-85
2021/07/13 00:44:28;;;;;;;102.45;71.82;;;19.30;99.90;;;;;;5098906;28;20028;-85
2021/07/13 00:46:58;;;;;;;100.13;69.97;;;19.30;99.90;;;;;;5072415;28;20132;-86
2021/07/13 00:49:24;;;;;;;95.70;68.30;;;19.30;99.90;;;;;;5053796;28;20059;-85
2021/07/13 00:51:50;;;;;;;108.13;72.60;;;19.20;99.90;;;;;;5052088;28;20127;-86
2021/07/13 00:54:17;;;;;;;98.78;70.88;;;19.20;99.90;;;;;;5067965;28;20311;-85
2021/07/13 00:56:43;;;;;;;111.68;73.80;;;19.20;99.90;;;;;;5043074;28;20056;-85
2021/07/13 00:59:11;;;;;;;103.68;71.85;;;19.20;99.90;;;;;;5072840;28;20136;-86
2021/07/13 01:01:37;;;;;;;106.90;71.45;;;19.20;99.90;;;;;;5069793;28;20041;-86
2021/07/13 01:04:05;;;;;;;109.32;73.32;;;19.20;99.90;;;;;;5068640;28;20036;-85
2021/07/13 01:07:00;;;;;;;104.53;72.30;;;19.20;99.90;;;;;;5056295;28;20029;-84
2021/07/13 01:09:59;;;;;;;114.28;73.90;;;19.20;99.90;;;;;;5078134;28;20531;-85
2021/07/13 01:12:37;;;;;;;99.20;69.20;;;19.10;99.90;;;;;;5075619;28;20036;-85
2021/07/13 01:15:10;;;;;;;107.75;73.55;;;19.10;99.90;;;;;;5069884;28;20375;-86
2021/07/13 01:17:54;;;;;;;109.10;73.38;;;19.10;99.90;;;;;;5070700;28;20559;-85
2021/07/13 01:20:52;;;;;;;102.25;69.82;;;19.10;99.90;;;;;;5072442;28;20434;-85
2021/07/13 01:23:39;;;;;;;108.53;72.60;;;19.10;99.90;;;;;;5069853;28;20031;-85
2021/07/13 01:26:19;;;;;;;106.60;72.00;;;19.00;99.90;;;;;;5066152;28;20037;-85
2021/07/13 01:28:49;;;;;;;106.63;72.13;;;19.00;99.90;;;;;;5071400;28;20035;-85
2021/07/13 01:31:17;;;;;;;112.63;74.63;;;19.00;99.90;;;;;;5065329;28;20036;-85
2021/07/13 01:33:50;;;;;;;102.00;70.05;;;19.00;99.90;;;;;;5054754;28;20398;-85
2021/07/13 01:36:23;;;;;;;100.65;70.22;;;19.00;99.90;;;;;;5065487;28;20039;-85
2021/07/13 01:38:52;;;;;;;102.38;69.60;;;18.90;99.90;;;;;;5078605;28;20536;-85
2021/07/13 01:41:23;;;;;;;113.10;73.38;;;18.90;99.90;;;;;;5071424;28;20512;-85
2021/07/13 01:43:50;;;;;;;89.22;65.95;;;18.90;99.90;;;;;;5066957;28;20105;-86
2021/07/13 01:46:18;;;;;;;111.20;72.80;;;18.90;99.90;;;;;;5044209;28;20028;-85
2021/07/13 01:48:47;;;;;;;91.00;66.28;;;18.90;99.90;;;;;;5056262;28;20442;-86
2021/07/13 01:51:15;;;;;;;117.07;75.78;;;18.90;99.90;;;;;;5066759;28;20476;-84
2021/07/13 01:53:43;;;;;;;110.13;72.30;;;18.90;99.90;;;;;;5068517;28;20643;-85
2021/07/13 01:56:10;;;;;;;99.20;67.80;;;18.90;99.90;;;;;;5066817;28;20021;-85
2021/07/13 01:58:38;;;;;;;99.80;66.28;;;18.80;99.90;;;;;;5066165;28;20624;-85
2021/07/13 02:01:22;;;;;;;98.10;68.28;;;18.80;99.90;;;;;;5064560;28;20494;-85
2021/07/13 02:03:51;;;;;;;90.32;63.85;;;18.80;99.90;;;;;;5070091;28;20483;-85
2021/07/13 02:06:20;;;;;;;99.43;66.80;;;18.80;99.90;;;;;;5073319;28;20557;-84
2021/07/13 02:08:50;;;;;;;99.78;67.97;;;18.70;99.90;;;;;;5052960;28;20134;-85
2021/07/13 02:11:16;;;;;;;83.00;60.10;;;18.70;99.90;;;;;;5066607;28;20495;-85
2021/07/13 02:13:45;;;;;;;99.95;69.05;;;18.70;99.90;;;;;;5039551;28;20062;-85
2021/07/13 02:16:11;;;;;;;94.28;67.15;;;18.70;99.90;;;;;;5049227;28;20044;-85
2021/07/13 02:18:37;;;;;;;97.10;67.20;;;18.70;99.90;;;;;;5067619;28;20052;-85
2021/07/13 02:21:04;;;;;;;96.65;68.28;;;18.60;99.90;;;;;;5066152;28;20028;-86
2021/07/13 02:23:30;;;;;;;103.40;70.95;;;18.60;99.90;;;;;;5037643;28;20090;-85
2021/07/13 02:26:01;;;;;;;104.30;70.35;;;18.60;99.90;;;;;;5037278;28;20464;-85
2021/07/13 02:28:36;;;;;;;112.93;74.75;;;18.60;99.90;;;;;;5068802;28;20033;-84
2021/07/13 02:31:11;;;;;;;99.95;70.68;;;18.60;99.90;;;;;;5067338;28;20078;-86
2021/07/13 02:33:48;;;;;;;127.95;78.20;;;18.60;99.90;;;;;;5064643;28;20040;-85
2021/07/13 02:36:17;;;;;;;119.10;75.57;;;18.60;99.90;;;;;;5066428;28;20037;-85
2021/07/13 02:38:46;;;;;;;114.30;72.10;;;18.60;99.90;;;;;;5064791;28;20502;-85
2021/07/13 02:41:18;;;;;;;114.95;73.70;;;18.50;99.90;;;;;;5065186;28;20434;-85
2021/07/13 02:43:46;;;;;;;115.22;73.80;;;18.50;99.90;;;;;;5073455;28;20274;-86
2021/07/13 02:46:15;;;;;;;116.03;72.45;;;18.50;99.90;;;;;;5066656;28;21416;-85
2021/07/13 02:48:42;;;;;;;126.88;75.82;;;18.50;99.90;;;;;;5068701;28;20043;-85
2021/07/13 02:51:10;;;;;;;98.05;68.82;;;18.50;99.90;;;;;;5051342;28;20059;-85
2021/07/13 02:53:38;;;;;;;101.28;67.00;;;18.50;99.90;;;;;;5068619;28;20047;-85
2021/07/13 02:56:06;;;;;;;118.43;75.13;;;18.50;99.90;;;;;;5074557;28;20032;-87
2021/07/13 02:58:36;;;;;;;109.85;73.28;;;18.50;99.90;;;;;;5068126;28;20252;-85
2021/07/13 03:01:05;;;;;;;114.40;70.82;;;18.60;99.90;;;;;;5064089;28;20032;-85
2021/07/13 03:03:33;;;;;;;123.32;74.80;;;18.60;99.90;;;;;;5065657;28;20024;-86
2021/07/13 03:05:59;;;;;;;107.82;68.28;;;18.60;99.90;;;;;;5091521;28;20043;-85
2021/07/13 03:08:26;;;;;;;98.35;66.65;;;18.60;99.90;;;;;;5068761;28;20040;-85
2021/07/13 03:10:55;;;;;;;98.45;65.20;;;18.60;99.90;;;;;;5054201;28;20115;-85
2021/07/13 03:13:23;;;;;;;105.63;69.03;;;18.60;99.90;;;;;;5068717;28;20074;-85
2021/07/13 03:15:49;;;;;;;98.03;64.20;;;18.60;99.90;;;;;;5065286;28;20039;-85
2021/07/13 03:18:16;;;;;;;109.40;68.85;;;18.60;99.90;;;;;;5066244;28;20028;-84
2021/07/13 03:20:51;;;;;;;107.97;67.05;;;18.60;99.90;;;;;;5068616;28;20036;-84
2021/07/13 03:23:18;;;;;;;87.25;61.65;;;18.60;99.90;;;;;;5066625;28;20729;-84
2021/07/13 03:25:45;;;;;;;90.13;63.33;;;18.60;99.90;;;;;;5057372;28;20483;-85
2021/07/13 03:28:13;;;;;;;89.18;61.95;;;18.60;99.90;;;;;;5054257;28;20475;-85
2021/07/13 03:30:41;;;;;;;103.40;66.25;;;18.60;99.90;;;;;;5057522;28;20028;-85
2021/07/13 03:33:08;;;;;;;91.70;62.45;;;18.60;99.90;;;;;;5052184;28;20044;-85
2021/07/13 03:35:35;;;;;;;91.18;60.13;;;18.60;99.90;;;;;;5071488;28;20032;-85
2021/07/13 03:38:01;;;;;;;82.97;57.47;;;18.60;99.90;;;;;;5057145;28;20036;-84
2021/07/13 03:40:28;;;;;;;93.22;59.95;;;18.60;99.90;;;;;;5074653;28;20039;-85
2021/07/13 03:42:55;;;;;;;81.68;58.35;;;18.60;99.90;;;;;;5060962;28;20244;-84
2021/07/13 03:45:25;;;;;;;84.45;59.35;;;18.60;99.90;;;;;;5071247;28;20055;-84
2021/07/13 03:51:00;;;;;;;96.50;61.38;;;18.60;99.90;;;;;;5033108;28;20048;-88
2021/07/13 03:53:26;;;;;;;83.18;56.72;;;18.60;99.90;;;;;;5056707;28;20043;-85
2021/07/13 03:55:52;;;;;;;87.03;57.10;;;18.60;99.90;;;;;;5039716;28;20040;-85
2021/07/13 03:58:18;;;;;;;86.57;59.78;;;18.60;99.90;;;;;;5055879;28;20879;-85
2021/07/13 04:00:44;;;;;;;84.10;57.33;;;18.60;99.90;;;;;;5058395;28;20335;-85
2021/07/13 04:03:10;;;;;;;89.00;59.45;;;18.60;99.90;;;;;;5054750;28;20028;-85
2021/07/13 04:05:36;;;;;;;80.43;54.05;;;18.60;99.90;;;;;;5044482;28;20064;-85
2021/07/13 04:08:03;;;;;;;74.95;53.10;;;18.60;99.90;;;;;;5024146;28;20087;-85
2021/07/13 04:10:30;;;;;;;70.40;51.35;;;18.70;99.90;;;;;;5070058;28;20059;-85
2021/07/13 04:12:56;;;;;;;80.07;53.33;;;18.70;99.90;;;;;;5069805;28;20446;-84
2021/07/13 04:15:22;;;;;;;70.28;50.47;;;18.70;99.90;;;;;;5049835;28;20040;-85
2021/07/13 04:17:48;;;;;;;65.70;49.90;;;18.70;99.90;;;;;;5058740;28;20422;-85
2021/07/13 04:20:14;;;;;;;78.30;53.67;;;18.70;99.90;;;;;;5056428;28;20139;-85
2021/07/13 04:22:42;;;;;;;72.40;52.47;;;18.70;99.90;;;;;;5066281;28;20062;-85
2021/07/13 04:25:11;;;;;;;84.93;55.92;;;18.80;99.90;;;;;;5071484;28;20060;-85
2021/07/13 04:27:37;;;;;;;82.05;56.92;;;18.80;99.90;;;;;;5071212;28;20406;-85
2021/07/13 04:30:05;;;;;;;62.40;48.45;;;18.80;99.90;;;;;;5038458;28;20051;-85
2021/07/13 04:32:32;;;;;;;72.10;52.80;;;18.80;99.90;;;;;;5054674;28;20041;-85
2021/07/13 04:34:57;;;;;;;76.10;53.50;;;18.80;99.90;;;;;;5069999;28;20047;-85
2021/07/13 04:37:24;;;;;;;73.95;53.38;;;18.80;99.90;;;;;;5068197;28;21605;-85
2021/07/13 04:39:51;;;;;;;68.82;49.40;;;18.80;99.90;;;;;;5058807;28;20020;-85
2021/07/13 04:42:17;;;;;;;89.15;58.28;;;18.80;99.90;;;;;;5071244;28;20768;-85
2021/07/13 04:44:43;;;;;;;75.78;53.47;;;18.90;99.90;;;;;;5068425;28;20865;-85
2021/07/13 04:47:09;;;;;;;78.70;55.70;;;18.90;99.90;;;;;;5059204;28;20036;-85
2021/07/13 04:49:34;;;;;;;69.50;50.88;;;18.90;99.90;;;;;;5053486;28;20441;-85
2021/07/13 04:52:01;;;;;;;87.03;58.67;;;18.90;99.90;;;;;;5060933;28;20036;-85
2021/07/13 04:54:31;;;;;;;89.30;61.08;;;18.90;99.90;;;;;;5070938;28;20045;-85
2021/07/13 04:56:58;;;;;;;81.72;56.78;;;18.90;99.90;;;;;;5058638;28;20483;-85
2021/07/13 04:59:25;;;;;;;82.82;58.90;;;19.00;99.90;;;;;;5070254;28;20243;-85
2021/07/13 05:01:51;;;;;;;82.85;57.65;;;19.00;99.90;;;;;;5058800;28;20044;-84
2021/07/13 05:04:17;;;;;;;84.88;56.70;;;19.00;99.90;;;;;;5042812;28;20040;-85
2021/07/13 05:06:54;;;;;;;92.60;63.70;;;19.00;99.90;;;;;;5072094;28;20051;-87
2021/07/13 05:09:23;;;;;;;80.05;59.03;;;19.00;99.90;;;;;;5057073;28;20024;-85
2021/07/13 05:11:49;;;;;;;89.30;61.85;;;19.10;99.90;;;;;;5070932;28;20040;-85
2021/07/13 05:14:15;;;;;;;84.47;59.08;;;19.10;99.90;;;;;;5056082;28;20120;-84
2021/07/13 05:16:41;;;;;;;97.20;63.30;;;19.10;99.90;;;;;;5057853;28;20058;-84
2021/07/13 05:19:09;;;;;;;102.13;67.57;;;19.20;99.90;;;;;;5058343;28;20741;-84
2021/07/13 05:21:34;;;;;;;84.57;59.45;;;19.20;99.90;;;;;;5074398;28;20028;-86
2021/07/13 05:24:01;;;;;;;91.68;64.50;;;19.20;99.90;;;;;;5052866;28;20020;-85
2021/07/13 05:26:28;;;;;;;82.78;56.70;;;19.30;99.90;;;;;;5090458;28;20035;-85
2021/07/13 05:28:54;;;;;;;90.00;61.40;;;19.30;99.90;;;;;;5050344;28;20032;-85
2021/07/13 05:31:20;;;;;;;89.03;61.70;;;19.30;99.90;;;;;;5052733;28;20384;-85
2021/07/13 05:33:46;;;;;;;85.07;60.80;;;19.40;99.90;;;;;;5058372;28;20329;-85
2021/07/13 05:36:12;;;;;;;86.78;62.20;;;19.30;99.90;;;;;;5057405;28;20441;-84
2021/07/13 05:38:38;;;;;;;80.65;59.00;;;19.40;99.90;;;;;;5065718;28;20946;-84
2021/07/13 05:41:04;;;;;;;84.13;59.70;;;19.50;99.90;;;;;;5052231;28;20490;-84
2021/07/13 05:43:29;;;;;;;83.88;61.33;;;19.50;99.90;;;;;;5068979;28;20040;-84
2021/07/13 05:45:55;;;;;;;84.93;62.58;;;19.60;99.90;;;;;;5053191;28;20058;-84
2021/07/13 05:48:21;;;;;;;77.28;57.50;;;19.60;99.90;;;;;;5069532;28;20036;-84
2021/07/13 05:50:47;;;;;;;83.50;58.35;;;19.60;99.90;;;;;;5062150;28;20522;-84
2021/07/13 05:53:12;;;;;;;87.35;61.38;;;19.70;99.90;;;;;;5051019;28;20040;-85
2021/07/13 05:55:38;;;;;;;81.45;58.13;;;19.70;99.90;;;;;;5051288;28;20020;-84
2021/07/13 05:58:04;;;;;;;85.25;58.42;;;19.70;99.90;;;;;;5072218;28;20441;-85
2021/07/13 06:00:30;;;;;;;88.22;62.65;;;19.70;99.90;;;;;;5057973;28;20055;-87
2021/07/13 06:02:59;;;;;;;87.57;61.50;;;19.70;99.90;;;;;;5057294;28;20062;-86
2021/07/13 06:05:25;;;;;;;79.70;60.38;;;19.70;99.90;;;;;;5058875;28;20068;-84
2021/07/13 06:07:51;;;;;;;81.75;59.33;;;19.70;99.90;;;;;;5042556;28;20033;-84
2021/07/13 06:10:17;;;;;;;82.15;58.28;;;19.70;99.90;;;;;;5068927;28;20085;-84
2021/07/13 06:12:44;;;;;;;73.70;57.00;;;19.80;99.90;;;;;;5068059;28;20032;-84
2021/07/13 06:15:10;;;;;;;75.43;55.83;;;19.80;99.90;;;;;;5067605;28;20054;-84
2021/07/13 06:17:39;;;;;;;73.63;54.25;;;19.80;99.90;;;;;;5060993;28;20044;-85
2021/07/13 06:20:05;;;;;;;74.38;55.13;;;19.90;99.90;;;;;;5077834;28;20024;-84
2021/07/13 06:22:31;;;;;;;76.35;55.80;;;19.90;99.90;;;;;;5056903;28;20044;-84
2021/07/13 06:24:57;;;;;;;77.53;55.95;;;20.00;99.90;;;;;;5058570;28;20329;-85
2021/07/13 06:27:23;;;;;;;71.20;53.78;;;20.00;99.90;;;;;;5068597;28;20093;-84
2021/07/13 06:29:48;;;;;;;67.88;52.63;;;20.10;99.90;;;;;;5036912;28;20027;-84
2021/07/13 06:32:14;;;;;;;71.40;53.50;;;20.10;99.90;;;;;;5070137;28;20352;-85
2021/07/13 06:34:40;;;;;;;66.15;51.78;;;20.20;99.90;;;;;;5059936;28;20051;-86
2021/07/13 06:37:06;;;;;;;65.60;50.95;;;20.20;99.90;;;;;;5063705;28;20060;-84
2021/07/13 06:39:31;;;;;;;70.00;53.10;;;20.30;99.90;;;;;;5059803;28;20031;-85
2021/07/13 06:41:57;;;;;;;66.80;51.30;;;20.40;99.90;;;;;;5056251;28;20039;-85
2021/07/13 06:44:23;;;;;;;67.00;51.28;;;20.40;99.90;;;;;;5039928;28;20401;-84
2021/07/13 06:46:49;;;;;;;67.55;51.30;;;20.40;99.90;;;;;;5051769;28;20032;-84
2021/07/13 06:49:15;;;;;;;61.20;49.70;;;20.40;99.90;;;;;;5052556;28;20089;-84
2021/07/13 06:51:40;;;;;;;63.42;50.30;;;20.50;99.90;;;;;;5035403;28;20144;-84
2021/07/13 06:54:06;;;;;;;62.00;49.28;;;20.50;99.90;;;;;;5071173;28;20032;-85
2021/07/13 06:56:32;;;;;;;59.63;47.60;;;20.50;99.90;;;;;;5053953;28;20510;-85
2021/07/13 06:58:58;;;;;;;61.05;48.15;;;20.50;99.90;;;;;;5055628;28;20340;-85
2021/07/13 07:01:24;;;;;;;61.53;47.95;;;20.50;99.90;;;;;;5069695;28;20032;-84
2021/07/13 07:03:50;;;;;;;59.33;47.10;;;20.60;99.90;;;;;;5066134;28;20028;-85
2021/07/13 07:06:15;;;;;;;62.15;46.42;;;20.60;99.90;;;;;;5046694;28;20038;-86
2021/07/13 07:08:41;;;;;;;60.97;47.15;;;20.60;99.90;;;;;;5074310;28;20032;-85
2021/07/13 07:11:07;;;;;;;61.85;47.47;;;20.60;99.90;;;;;;5058513;28;20162;-85
2021/07/13 07:13:34;;;;;;;59.83;46.40;;;20.70;99.90;;;;;;5051527;28;20115;-85
2021/07/13 07:15:59;;;;;;;56.70;42.10;;;20.70;99.80;;;;;;5052231;28;20047;-85
2021/07/13 07:18:25;;;;;;;54.70;44.30;;;20.70;99.80;;;;;;5033411;28;20482;-85
2021/07/13 07:20:51;;;;;;;50.67;42.78;;;20.80;99.70;;;;;;5056254;28;20032;-85
2021/07/13 07:23:17;;;;;;;56.00;43.88;;;20.80;99.70;;;;;;5056144;28;20036;-85
2021/07/13 07:25:43;;;;;;;52.58;44.22;;;20.80;99.70;;;;;;5050735;28;20100;-86
2021/07/13 07:28:11;;;;;;;54.05;43.75;;;20.90;99.60;;;;;;5070946;28;20378;-87
2021/07/13 07:30:38;;;;;;;56.72;44.50;;;20.90;99.50;;;;;;5064210;28;20062;-85
2021/07/13 07:33:04;;;;;;;50.85;41.47;;;20.90;99.50;;;;;;5052990;28;20075;-85
2021/07/13 07:35:31;;;;;;;52.05;41.10;;;20.90;99.50;;;;;;5063776;28;20028;-85
2021/07/13 07:37:58;;;;;;;48.33;37.28;;;21.00;99.50;;;;;;5049872;28;20040;-85
2021/07/13 07:40:24;;;;;;;47.20;38.40;;;21.00;99.50;;;;;;5053149;28;20040;-85
2021/07/13 07:42:53;;;;;;;46.10;38.33;;;21.00;99.40;;;;;;5083877;28;20039;-85
2021/07/13 07:45:20;;;;;;;47.08;37.97;;;21.00;99.30;;;;;;5093264;28;20054;-83
2021/07/13 07:47:47;;;;;;;47.08;37.38;;;21.10;99.20;;;;;;5064470;28;20137;-85
2021/07/13 07:50:14;;;;;;;47.05;38.55;;;21.10;99.10;;;;;;5080136;28;20309;-86
2021/07/13 07:53:08;;;;;;;50.15;37.85;;;21.20;99.10;;;;;;5057349;28;20032;-86
2021/07/13 07:55:35;;;;;;;45.03;37.92;;;21.20;99.00;;;;;;5072668;28;20048;-85
2021/07/13 07:58:00;;;;;;;44.22;35.80;;;21.20;98.90;;;;;;5076105;28;20161;-85
2021/07/13 08:00:26;;;;;;;44.30;35.17;;;21.30;98.90;;;;;;5066573;28;20044;-85
2021/07/13 08:02:52;;;;;;;38.65;32.85;;;21.20;98.80;;;;;;5051777;28;20452;-85
2021/07/13 08:05:19;;;;;;;43.05;33.35;;;21.20;98.70;;;;;;5019119;28;20048;-87
2021/07/13 08:07:46;;;;;;;43.58;34.78;;;21.20;98.60;;;;;;5040539;28;20048;-86
2021/07/13 08:10:13;;;;;;;43.42;33.97;;;21.20;98.60;;;;;;5065004;28;20056;-85
2021/07/13 08:12:41;;;;;;;36.15;31.63;;;21.20;98.70;;;;;;5058237;28;20058;-85
2021/07/13 08:15:09;;;;;;;47.67;37.42;;;21.20;98.70;;;;;;5054496;28;20402;-86
2021/07/13 08:17:35;;;;;;;53.97;41.00;;;21.30;98.80;;;;;;5066109;28;20533;-85
2021/07/13 08:20:01;;;;;;;50.75;39.47;;;21.30;98.80;;;;;;5066432;28;20032;-85
2021/07/13 08:22:27;;;;;;;52.05;38.80;;;21.30;98.80;;;;;;5055063;28;20042;-86
2021/07/13 08:24:53;;;;;;;60.00;41.58;;;21.40;99.20;;;;;;5039076;28;20407;-85
2021/07/13 08:27:18;;;;;;;55.00;41.05;;;21.40;98.90;;;;;;5074259;28;20028;-84
2021/07/13 08:29:44;;;;;;;52.53;40.78;;;21.40;98.80;;;;;;5061409;28;20700;-85
2021/07/13 08:32:10;;;;;;;53.80;40.63;;;21.40;98.50;;;;;;5056866;28;20119;-84
2021/07/13 08:34:36;;;;;;;52.53;40.42;;;21.40;98.40;;;;;;5040706;28;20502;-84
2021/07/13 08:37:04;;;;;;;55.83;39.28;;;21.40;98.50;;;;;;5060883;28;20032;-86
2021/07/13 08:39:30;;;;;;;50.63;37.33;;;21.40;98.30;;;;;;5062794;28;20446;-86
2021/07/13 08:42:03;;;;;;;54.90;39.97;;;21.40;98.40;;;;;;5074112;28;20032;-86
2021/07/13 08:44:30;;;;;;;52.78;39.22;;;21.40;98.40;;;;;;5059057;28;20426;-84
2021/07/13 08:47:00;;;;;;;49.88;37.33;;;21.30;98.40;;;;;;5089897;28;21169;-85
2021/07/13 08:49:25;;;;;;;52.45;36.55;;;21.30;98.30;;;;;;5057139;28;20105;-85
2021/07/13 08:51:51;;;;;;;50.50;36.35;;;21.30;98.30;;;;;;5055829;28;20051;-85
2021/07/13 08:54:17;;;;;;;45.63;36.00;;;21.30;98.40;;;;;;5058780;28;20111;-85
2021/07/13 08:56:44;;;;;;;45.67;35.25;;;21.20;98.40;;;;;;5052641;28;20119;-84
2021/07/13 08:59:09;;;;;;;46.40;34.55;;;21.20;98.40;;;;;;5072028;28;20028;-86
2021/07/13 09:01:35;;;;;;;41.92;32.75;;;21.30;98.50;;;;;;5052822;28;20043;-84
2021/07/13 09:04:09;;;;;;;41.05;33.08;;;21.30;98.40;;;;;;5032440;28;20310;-86
2021/07/13 09:06:56;;;;;;;35.97;31.20;;;21.30;98.50;;;;;;5062955;28;20213;-85
2021/07/13 09:09:44;;;;;;;37.92;30.63;;;21.30;98.40;;;;;;5072897;28;20394;-86
2021/07/13 09:12:17;;;;;;;33.58;29.83;;;21.30;98.30;;;;;;5065318;28;20048;-86
2021/07/13 09:14:48;;;;;;;36.95;29.52;;;21.20;98.30;;;;;;5085364;28;20035;-86
2021/07/13 09:17:36;;;;;;;35.55;28.40;;;21.20;98.30;;;;;;5077739;28;20040;-86
2021/07/13 09:20:16;;;;;;;34.67;29.55;;;21.20;98.30;;;;;;5068533;28;20106;-86
2021/07/13 09:23:00;;;;;;;33.97;30.25;;;21.20;98.30;;;;;;5066474;28;20549;-85
2021/07/13 09:25:36;;;;;;;32.03;28.35;;;21.30;98.20;;;;;;5069232;28;20044;-85
2021/07/13 09:28:08;;;;;;;31.58;27.13;;;21.20;98.30;;;;;;5071778;28;20039;-85
2021/07/13 09:30:35;;;;;;;35.83;30.08;;;21.30;98.30;;;;;;5079543;28;20620;-85
2021/07/13 09:33:17;;;;;;;32.22;28.60;;;21.30;98.30;;;;;;5058571;28;21245;-85
2021/07/13 09:36:11;;;;;;;33.63;27.33;;;21.30;98.20;;;;;;5074862;28;20035;-85
2021/07/13 09:38:45;;;;;;;32.85;28.75;;;21.30;98.30;;;;;;5076938;28;20032;-84
2021/07/13 09:41:20;;;;;;;33.45;29.08;;;21.30;98.30;;;;;;5069756;28;20032;-86
2021/07/13 09:44:00;;;;;;;31.45;28.05;;;21.40;98.40;;;;;;5075650;28;20039;-85
2021/07/13 09:46:33;;;;;;;34.50;29.30;;;21.40;98.30;;;;;;5078842;28;20142;-85
2021/07/13 09:49:11;;;;;;;32.13;27.58;;;21.40;98.20;;;;;;5070348;28;20320;-85
2021/07/13 09:51:39;;;;;;;35.70;29.52;;;21.40;98.30;;;;;;5067561;28;20063;-85
2021/07/13 09:54:27;;;;;;;32.65;29.30;;;21.40;98.40;;;;;;5071287;28;20029;-86
2021/07/13 09:56:53;;;;;;;32.30;27.38;;;21.40;98.30;;;;;;5073585;28;20043;-85
2021/07/13 09:59:19;;;;;;;31.85;28.15;;;21.50;98.30;;;;;;5074565;28;20644;-85
2021/07/13 10:01:45;;;;;;;32.67;27.70;;;21.50;98.20;;;;;;5073978;28;21223;-87
2021/07/13 10:04:11;;;;;;;33.70;29.05;;;21.50;98.30;;;;;;5068274;28;20472;-84
2021/07/13 10:06:38;;;;;;;31.00;26.48;;;21.50;98.20;;;;;;5078136;28;20576;-85
2021/07/13 10:09:11;;;;;;;31.08;27.50;;;21.50;98.20;;;;;;5068007;28;20483;-85
2021/07/13 10:11:41;;;;;;;30.88;27.77;;;21.60;98.20;;;;;;5071493;28;20530;-87
2021/07/13 10:14:11;;;;;;;31.98;27.27;;;21.60;98.30;;;;;;5073738;28;20037;-84
2021/07/13 10:16:38;;;;;;;30.92;26.48;;;21.60;98.30;;;;;;5055424;28;20109;-85
2021/07/13 10:19:08;;;;;;;31.90;26.77;;;21.60;98.20;;;;;;5075577;28;20398;-85
2021/07/13 10:21:35;;;;;;;29.45;26.25;;;21.60;98.20;;;;;;5055057;28;20362;-85
2021/07/13 10:24:02;;;;;;;30.60;25.65;;;21.60;98.20;;;;;;5046762;28;20032;-84
2021/07/13 10:27:02;;;;;;;31.45;25.75;;;21.70;98.30;;;;;;5070734;28;20157;-85
2021/07/13 10:29:34;;;;;;;29.13;24.35;;;21.70;98.20;;;;;;5059091;28;20114;-86
2021/07/13 10:32:11;;;;;;;29.65;25.35;;;21.80;98.30;;;;;;5066452;28;20515;-85
2021/07/13 10:35:02;;;;;;;28.10;25.25;;;21.80;98.30;;;;;;5073067;28;20074;-86
2021/07/13 10:37:42;;;;;;;31.35;27.55;;;21.90;98.20;;;;;;5071020;28;20029;-86
2021/07/13 10:40:12;;;;;;;31.85;26.60;;;21.90;98.20;;;;;;5075830;28;20035;-84
2021/07/13 10:42:41;;;;;;;30.45;26.92;;;21.90;98.20;;;;;;5079001;22;20040;-86
2021/07/13 10:45:27;;;;;;;35.13;28.48;;;22.00;98.10;;;;;;5078481;28;20051;-85
2021/07/13 10:48:17;;;;;;;30.25;26.98;;;22.00;98.00;;;;;;5077672;28;20687;-84
2021/07/13 10:51:06;;;;;;;31.45;28.17;;;22.00;98.00;;;;;;5074138;28;20036;-84
2021/07/13 10:53:38;;;;;;;30.38;27.08;;;22.00;98.00;;;;;;5054483;28;20124;-87
2021/07/13 10:56:07;;;;;;;32.08;26.80;;;22.00;98.10;;;;;;5058424;28;20078;-85
2021/07/13 10:58:39;;;;;;;29.67;26.20;;;22.10;98.00;;;;;;5057790;28;20087;-84
2021/07/13 11:01:08;;;;;;;28.43;24.57;;;22.10;98.00;;;;;;5048375;28;20029;-85
2021/07/13 11:03:36;;;;;;;29.58;26.48;;;22.10;98.20;;;;;;5040845;28;20099;-85
2021/07/13 11:06:16;;;;;;;30.77;27.52;;;22.20;98.10;;;;;;5039954;28;20134;-84
2021/07/13 11:08:44;;;;;;;32.17;27.67;;;22.20;98.00;;;;;;5036083;28;20088;-84
2021/07/13 11:13:44;;;;;;;36.83;28.77;;;22.20;98.20;;;;;;5054528;28;20033;-86
2021/07/13 11:16:10;;;;;;;33.03;27.23;;;22.20;98.20;;;;;;5055262;28;20033;-85
2021/07/13 11:18:38;;;;;;;31.13;27.45;;;22.20;98.00;;;;;;5058907;28;20491;-84
2021/07/13 11:21:18;;;;;;;35.75;29.25;;;22.20;97.90;;;;;;5055805;28;20051;-84
2021/07/13 11:24:02;;;;;;;31.80;28.55;;;22.10;97.80;;;;;;5040696;28;20033;-84
2021/07/13 11:26:28;;;;;;;34.70;29.67;;;22.10;98.00;;;;;;5052005;28;20488;-85
2021/07/13 11:28:58;;;;;;;33.35;28.13;;;22.00;98.20;;;;;;5062843;28;20480;-84
2021/07/13 11:31:32;;;;;;;38.95;31.35;;;22.00;98.20;;;;;;5052172;28;20098;-85
2021/07/13 11:34:02;;;;;;;36.15;31.65;;;22.00;98.40;;;;;;5073427;28;20067;-85
2021/07/13 11:36:40;;;;;;;37.58;31.85;;;22.00;98.40;;;;;;5051408;28;20041;-85
2021/07/13 11:39:09;;;;;;;37.63;31.73;;;21.90;98.40;;;;;;5057398;28;20575;-86
2021/07/13 11:41:36;;;;;;;34.42;29.50;;;21.90;98.50;;;;;;5063767;28;20564;-85
2021/07/13 11:44:05;;;;;;;37.05;29.50;;;21.90;98.50;;;;;;5052694;28;20044;-86
2021/07/13 11:46:33;;;;;;;39.40;31.00;;;21.90;98.60;;;;;;5060599;28;20208;-85
2021/07/13 11:49:13;;;;;;;37.13;32.72;;;21.90;98.60;;;;;;5059960;28;20036;-85
2021/07/13 11:51:41;;;;;;;39.00;31.05;;;21.90;98.70;;;;;;5053611;28;20060;-84
2021/07/13 11:54:12;;;;;;;40.83;32.63;;;21.90;98.80;;;;;;5052143;28;20479;-84
2021/07/13 11:56:45;;;;;;;37.88;32.72;;;21.90;98.90;;;;;;5059439;28;20036;-85
2021/07/13 11:59:16;;;;;;;39.55;32.42;;;21.90;98.70;;;;;;5052949;28;20071;-85
2021/07/13 12:01:47;;;;;;;34.97;31.25;;;21.90;98.90;;;;;;5058915;28;20037;-84
2021/07/13 12:04:13;;;;;;;37.83;32.08;;;21.80;98.80;;;;;;5036568;28;20099;-86
2021/07/13 12:06:42;;;;;;;37.50;32.03;;;21.80;98.80;;;;;;5057585;28;20124;-84
2021/07/13 12:09:12;;;;;;;41.10;33.30;;;21.80;98.80;;;;;;5057548;28;20036;-84
2021/07/13 12:11:46;;;;;;;38.78;33.63;;;21.80;98.90;;;;;;5033849;28;20040;-84
2021/07/13 12:14:14;;;;;;;37.80;33.45;;;21.80;98.90;;;;;;5060825;28;20064;-84
2021/07/13 12:16:41;;;;;;;36.00;32.10;;;21.80;99.00;;;;;;5067271;28;20068;-83
2021/07/13 12:19:12;;;;;;;39.78;35.58;;;21.80;99.00;;;;;;5055221;28;20055;-84
2021/07/13 12:21:56;;;;;;;43.05;35.42;;;21.80;99.20;;;;;;5061514;28;20040;-83
2021/07/13 12:24:29;;;;;;;43.05;35.13;;;21.80;99.20;;;;;;5055816;28;20041;-83
2021/07/13 12:26:57;;;;;;;38.25;34.00;;;21.80;99.20;;;;;;5070038;28;20032;-83
2021/07/13 12:29:51;;;;;;;39.13;34.47;;;21.80;99.30;;;;;;5060571;28;20127;-83
2021/07/13 12:32:22;;;;;;;44.50;37.60;;;21.80;99.20;;;;;;5052590;28;20040;-84
2021/07/13 12:34:50;;;;;;;41.55;36.20;;;21.80;99.40;;;;;;5065241;28;20025;-85
2021/07/13 12:37:22;;;;;;;42.50;36.67;;;21.70;99.40;;;;;;5050835;28;20028;-84
2021/07/13 12:39:50;;;;;;;44.10;34.55;;;21.70;99.40;;;;;;5055079;28;20570;-84
2021/07/13 12:42:22;;;;;;;38.65;34.42;;;21.70;99.40;;;;;;5038558;28;20041;-84